sensor_id;sensor_type;location;lat;lon;timestamp;pressure;altitude;pressure_sealevel;temperature;humidity
39949;BME280;29070;48.102;-1.652;2022-08-19T00:04:25;101498.28;;;19.89;64.08
39949;BME280;29070;48.102;-1.652;2022-08-19T00:09:27;101512.13;;;19.74;64.48
39949;BME280;29070;48.102;-1.652;2022-08-19T00:14:28;101500.06;;;19.71;64.66
39949;BME280;29070;48.102;-1.652;2022-08-19T00:19:31;101507.16;;;19.66;64.85
39949;BME280;29070;48.102;-1.652;2022-08-19T00:24:32;101506.81;;;19.62;65.02
39949;BME280;29070;48.102;-1.652;2022-08-19T00:29:32;101502.41;;;19.56;65.12
39949;BME280;29070;48.102;-1.652;2022-08-19T00:34:32;101506.94;;;19.55;65.50
39949;BME280;29070;48.102;-1.652;2022-08-19T00:39:33;101505.53;;;19.53;65.55
39949;BME280;29070;48.102;-1.652;2022-08-19T00:44:33;101499.88;;;19.49;65.68
39949;BME280;29070;48.102;-1.652;2022-08-19T00:49:37;101494.31;;;19.51;65.87
39949;BME280;29070;48.102;-1.652;2022-08-19T00:54:39;101497.00;;;19.51;66.10
39949;BME280;29070;48.102;-1.652;2022-08-19T00:59:42;101495.84;;;19.47;66.46
39949;BME280;29070;48.102;-1.652;2022-08-19T01:04:42;101497.47;;;19.48;66.55
39949;BME280;29070;48.102;-1.652;2022-08-19T01:09:43;101488.66;;;19.47;66.54
39949;BME280;29070;48.102;-1.652;2022-08-19T01:14:44;101483.66;;;19.51;66.94
39949;BME280;29070;48.102;-1.652;2022-08-19T01:19:46;101490.06;;;19.50;67.19
39949;BME280;29070;48.102;-1.652;2022-08-19T01:24:47;101490.63;;;19.52;67.40
39949;BME280;29070;48.102;-1.652;2022-08-19T01:29:47;101481.25;;;19.49;67.49
39949;BME280;29070;48.102;-1.652;2022-08-19T01:34:47;101493.06;;;19.53;67.73
39949;BME280;29070;48.102;-1.652;2022-08-19T01:39:48;101490.63;;;19.52;68.00
39949;BME280;29070;48.102;-1.652;2022-08-19T01:44:48;101486.44;;;19.56;68.24
39949;BME280;29070;48.102;-1.652;2022-08-19T01:49:49;101491.75;;;19.56;68.31
39949;BME280;29070;48.102;-1.652;2022-08-19T01:54:49;101491.88;;;19.61;68.52
39949;BME280;29070;48.102;-1.652;2022-08-19T01:59:49;101483.09;;;19.60;68.86
39949;BME280;29070;48.102;-1.652;2022-08-19T02:04:51;101498.81;;;19.62;68.87
39949;BME280;29070;48.102;-1.652;2022-08-19T02:09:52;101492.44;;;19.63;69.22
39949;BME280;29070;48.102;-1.652;2022-08-19T02:14:52;101487.56;;;19.60;69.45
39949;BME280;29070;48.102;-1.652;2022-08-19T02:19:52;101492.34;;;19.58;69.67
39949;BME280;29070;48.102;-1.652;2022-08-19T02:24:54;101493.41;;;19.57;70.02
39949;BME280;29070;48.102;-1.652;2022-08-19T02:29:54;101491.19;;;19.54;70.29
39949;BME280;29070;48.102;-1.652;2022-08-19T02:34:55;101491.75;;;19.56;70.26
39949;BME280;29070;48.102;-1.652;2022-08-19T02:39:55;101490.00;;;19.61;70.58
39949;BME280;29070;48.102;-1.652;2022-08-19T02:44:56;101494.31;;;19.62;70.67
39949;BME280;29070;48.102;-1.652;2022-08-19T02:49:56;101496.16;;;19.62;70.93
39949;BME280;29070;48.102;-1.652;2022-08-19T02:54:56;101497.56;;;19.53;71.15
39949;BME280;29070;48.102;-1.652;2022-08-19T02:59:57;101499.75;;;19.56;71.32
39949;BME280;29070;48.102;-1.652;2022-08-19T03:04:57;101502.19;;;19.57;71.31
39949;BME280;29070;48.102;-1.652;2022-08-19T03:09:58;101506.22;;;19.60;71.51
39949;BME280;29070;48.102;-1.652;2022-08-19T03:14:58;101497.75;;;19.63;71.60
39949;BME280;29070;48.102;-1.652;2022-08-19T03:19:59;101493.56;;;19.67;71.73
39949;BME280;29070;48.102;-1.652;2022-08-19T03:25:00;101491.16;;;19.66;71.61
39949;BME280;29070;48.102;-1.652;2022-08-19T03:30:00;101479.22;;;19.68;71.68
39949;BME280;29070;48.102;-1.652;2022-08-19T03:35:01;101494.16;;;19.69;71.79
39949;BME280;29070;48.102;-1.652;2022-08-19T03:40:02;101484.44;;;19.63;72.42
39949;BME280;29070;48.102;-1.652;2022-08-19T03:45:04;101491.75;;;19.68;72.29
39949;BME280;29070;48.102;-1.652;2022-08-19T03:50:05;101501.66;;;19.72;72.09
39949;BME280;29070;48.102;-1.652;2022-08-19T03:55:06;101492.69;;;19.73;72.28
39949;BME280;29070;48.102;-1.652;2022-08-19T04:00:07;101500.78;;;19.78;72.32
39949;BME280;29070;48.102;-1.652;2022-08-19T04:05:08;101497.78;;;19.75;72.45
39949;BME280;29070;48.102;-1.652;2022-08-19T04:10:09;101494.28;;;19.74;72.63
39949;BME280;29070;48.102;-1.652;2022-08-19T04:15:10;101491.63;;;19.74;72.79
39949;BME280;29070;48.102;-1.652;2022-08-19T04:20:10;101490.59;;;19.75;72.99
39949;BME280;29070;48.102;-1.652;2022-08-19T04:25:11;101485.59;;;19.79;72.94
39949;BME280;29070;48.102;-1.652;2022-08-19T04:30:12;101482.34;;;19.77;73.12
39949;BME280;29070;48.102;-1.652;2022-08-19T04:35:12;101496.72;;;19.76;73.25
39949;BME280;29070;48.102;-1.652;2022-08-19T04:40:13;101496.13;;;19.74;73.46
39949;BME280;29070;48.102;-1.652;2022-08-19T04:45:32;101499.94;;;19.78;73.45
39949;BME280;29070;48.102;-1.652;2022-08-19T04:50:32;101490.81;;;19.74;73.71
39949;BME280;29070;48.102;-1.652;2022-08-19T04:55:33;101490.59;;;19.75;73.66
39949;BME280;29070;48.102;-1.652;2022-08-19T05:00:38;101489.88;;;19.80;73.88
39949;BME280;29070;48.102;-1.652;2022-08-19T05:05:42;101488.47;;;19.77;74.02
39949;BME280;29070;48.102;-1.652;2022-08-19T05:10:42;101498.44;;;19.70;74.32
39949;BME280;29070;48.102;-1.652;2022-08-19T05:15:43;101493.69;;;19.72;74.33
39949;BME280;29070;48.102;-1.652;2022-08-19T05:20:44;101509.47;;;19.74;74.33
39949;BME280;29070;48.102;-1.652;2022-08-19T05:26:03;101504.81;;;19.69;74.70
39949;BME280;29070;48.102;-1.652;2022-08-19T05:31:04;101502.41;;;19.68;74.84
39949;BME280;29070;48.102;-1.652;2022-08-19T05:36:05;101506.78;;;19.74;74.82
39949;BME280;29070;48.102;-1.652;2022-08-19T05:41:12;101512.81;;;19.69;74.89
39949;BME280;29070;48.102;-1.652;2022-08-19T05:46:19;101509.09;;;19.70;75.13
39949;BME280;29070;48.102;-1.652;2022-08-19T05:51:20;101521.59;;;19.70;75.05
39949;BME280;29070;48.102;-1.652;2022-08-19T05:56:20;101532.50;;;19.68;75.30
39949;BME280;29070;48.102;-1.652;2022-08-19T06:01:21;101525.06;;;19.70;75.20
39949;BME280;29070;48.102;-1.652;2022-08-19T06:06:21;101524.19;;;19.76;75.05
39949;BME280;29070;48.102;-1.652;2022-08-19T06:11:51;101526.56;;;19.78;75.17
39949;BME280;29070;48.102;-1.652;2022-08-19T06:16:53;101527.19;;;19.80;75.23
39949;BME280;29070;48.102;-1.652;2022-08-19T06:21:54;101536.78;;;19.81;75.14
39949;BME280;29070;48.102;-1.652;2022-08-19T06:26:55;101527.41;;;19.78;75.45
39949;BME280;29070;48.102;-1.652;2022-08-19T06:31:58;101527.31;;;19.73;75.54
39949;BME280;29070;48.102;-1.652;2022-08-19T06:37:00;101531.09;;;19.77;75.61
39949;BME280;29070;48.102;-1.652;2022-08-19T06:42:05;101525.88;;;19.83;75.85
39949;BME280;29070;48.102;-1.652;2022-08-19T06:47:08;101527.59;;;19.89;75.74
39949;BME280;29070;48.102;-1.652;2022-08-19T06:52:10;101529.56;;;19.93;75.76
39949;BME280;29070;48.102;-1.652;2022-08-19T06:57:12;101541.00;;;19.94;76.01
39949;BME280;29070;48.102;-1.652;2022-08-19T07:02:15;101544.09;;;20.03;76.15
39949;BME280;29070;48.102;-1.652;2022-08-19T07:07:15;101540.41;;;20.04;76.18
39949;BME280;29070;48.102;-1.652;2022-08-19T07:12:15;101539.94;;;20.07;76.16
39949;BME280;29070;48.102;-1.652;2022-08-19T07:17:16;101552.88;;;20.15;76.06
39949;BME280;29070;48.102;-1.652;2022-08-19T07:22:16;101546.28;;;20.17;75.96
39949;BME280;29070;48.102;-1.652;2022-08-19T07:27:18;101550.16;;;20.27;76.26
39949;BME280;29070;48.102;-1.652;2022-08-19T07:32:18;101561.94;;;20.31;76.07
39949;BME280;29070;48.102;-1.652;2022-08-19T07:37:19;101564.25;;;20.39;76.04
39949;BME280;29070;48.102;-1.652;2022-08-19T07:42:19;101568.69;;;20.50;76.18
39949;BME280;29070;48.102;-1.652;2022-08-19T07:47:21;101568.66;;;20.62;75.87
39949;BME280;29070;48.102;-1.652;2022-08-19T07:52:21;101562.03;;;20.65;75.71
39949;BME280;29070;48.102;-1.652;2022-08-19T07:57:22;101557.81;;;20.69;75.67
39949;BME280;29070;48.102;-1.652;2022-08-19T08:02:22;101558.97;;;20.73;75.69
39949;BME280;29070;48.102;-1.652;2022-08-19T08:07:23;101565.00;;;20.85;75.60
39949;BME280;29070;48.102;-1.652;2022-08-19T08:12:42;101568.97;;;21.00;75.45
39949;BME280;29070;48.102;-1.652;2022-08-19T08:17:43;101564.63;;;21.10;75.31
39949;BME280;29070;48.102;-1.652;2022-08-19T08:22:45;101563.38;;;21.18;74.72
39949;BME280;29070;48.102;-1.652;2022-08-19T08:28:05;101567.94;;;21.40;74.95
39949;BME280;29070;48.102;-1.652;2022-08-19T08:33:07;101570.34;;;21.58;74.47
39949;BME280;29070;48.102;-1.652;2022-08-19T08:38:08;101577.88;;;21.61;74.29
39949;BME280;29070;48.102;-1.652;2022-08-19T08:53:31;101577.75;;;21.95;73.94
39949;BME280;29070;48.102;-1.652;2022-08-19T08:59:00;101572.34;;;22.39;73.20
39949;BME280;29070;48.102;-1.652;2022-08-19T09:04:05;101568.47;;;22.90;73.19
39949;BME280;29070;48.102;-1.652;2022-08-19T09:09:20;101561.22;;;23.22;71.53
39949;BME280;29070;48.102;-1.652;2022-08-19T09:14:35;101573.22;;;23.68;70.90
39949;BME280;29070;48.102;-1.652;2022-08-19T09:19:57;101569.97;;;23.60;68.70
39949;BME280;29070;48.102;-1.652;2022-08-19T09:24:58;101575.25;;;23.40;69.82
39949;BME280;29070;48.102;-1.652;2022-08-19T09:29:58;101585.31;;;23.22;69.30
39949;BME280;29070;48.102;-1.652;2022-08-19T09:34:59;101584.22;;;23.18;69.67
39949;BME280;29070;48.102;-1.652;2022-08-19T09:40:00;101585.56;;;23.21;69.55
39949;BME280;29070;48.102;-1.652;2022-08-19T09:45:01;101585.06;;;23.24;68.97
39949;BME280;29070;48.102;-1.652;2022-08-19T09:50:07;101580.56;;;23.35;69.13
39949;BME280;29070;48.102;-1.652;2022-08-19T09:55:09;101576.34;;;23.49;68.50
39949;BME280;29070;48.102;-1.652;2022-08-19T10:00:09;101564.91;;;23.69;68.57
39949;BME280;29070;48.102;-1.652;2022-08-19T10:05:10;101590.09;;;23.63;67.74
39949;BME280;29070;48.102;-1.652;2022-08-19T10:10:29;101585.78;;;23.62;68.07
39949;BME280;29070;48.102;-1.652;2022-08-19T10:15:29;101581.78;;;23.59;67.88
39949;BME280;29070;48.102;-1.652;2022-08-19T10:20:30;101591.44;;;23.66;68.13
39949;BME280;29070;48.102;-1.652;2022-08-19T10:25:31;101579.13;;;23.65;67.59
39949;BME280;29070;48.102;-1.652;2022-08-19T10:30:34;101583.09;;;23.57;67.21
39949;BME280;29070;48.102;-1.652;2022-08-19T10:35:35;101588.66;;;23.40;67.37
39949;BME280;29070;48.102;-1.652;2022-08-19T10:40:36;101581.16;;;23.42;67.72
39949;BME280;29070;48.102;-1.652;2022-08-19T10:45:37;101588.69;;;23.50;67.78
39949;BME280;29070;48.102;-1.652;2022-08-19T10:50:37;101582.78;;;23.43;67.43
39949;BME280;29070;48.102;-1.652;2022-08-19T10:56:07;101583.78;;;23.37;67.45
39949;BME280;29070;48.102;-1.652;2022-08-19T11:01:26;101573.09;;;23.42;67.59
39949;BME280;29070;48.102;-1.652;2022-08-19T11:06:27;101590.09;;;23.63;67.92
39949;BME280;29070;48.102;-1.652;2022-08-19T11:11:27;101580.19;;;23.69;68.16
39949;BME280;29070;48.102;-1.652;2022-08-19T11:16:28;101577.31;;;23.86;67.74
39949;BME280;29070;48.102;-1.652;2022-08-19T11:21:33;101569.59;;;24.00;67.87
39949;BME280;29070;48.102;-1.652;2022-08-19T11:26:35;101559.16;;;24.13;67.58
39949;BME280;29070;48.102;-1.652;2022-08-19T11:31:37;101557.28;;;24.09;67.25
39949;BME280;29070;48.102;-1.652;2022-08-19T11:36:41;101566.34;;;23.87;67.63
39949;BME280;29070;48.102;-1.652;2022-08-19T11:41:42;101576.03;;;23.93;67.40
39949;BME280;29070;48.102;-1.652;2022-08-19T11:46:44;101569.03;;;23.92;67.18
39949;BME280;29070;48.102;-1.652;2022-08-19T11:51:48;101564.72;;;23.81;67.24
39949;BME280;29070;48.102;-1.652;2022-08-19T11:56:50;101567.94;;;23.83;67.19
39949;BME280;29070;48.102;-1.652;2022-08-19T12:01:50;101562.38;;;23.95;67.04
39949;BME280;29070;48.102;-1.652;2022-08-19T12:06:51;101579.41;;;23.68;67.41
39949;BME280;29070;48.102;-1.652;2022-08-19T12:11:51;101585.75;;;23.47;68.15
39949;BME280;29070;48.102;-1.652;2022-08-19T12:16:51;101583.72;;;23.27;68.45
39949;BME280;29070;48.102;-1.652;2022-08-19T12:21:52;101587.72;;;23.19;68.91
39949;BME280;29070;48.102;-1.652;2022-08-19T12:26:55;101593.34;;;23.22;69.20
39949;BME280;29070;48.102;-1.652;2022-08-19T12:31:58;101583.78;;;23.37;70.17
39949;BME280;29070;48.102;-1.652;2022-08-19T12:37:02;101584.66;;;23.48;70.16
39949;BME280;29070;48.102;-1.652;2022-08-19T12:42:03;101581.75;;;23.54;69.83
39949;BME280;29070;48.102;-1.652;2022-08-19T12:47:04;101582.50;;;23.39;70.21
39949;BME280;29070;48.102;-1.652;2022-08-19T12:52:05;101573.66;;;23.44;70.26
39949;BME280;29070;48.102;-1.652;2022-08-19T12:57:07;101576.06;;;23.46;70.44
39949;BME280;29070;48.102;-1.652;2022-08-19T13:02:11;101571.50;;;23.46;70.77
39949;BME280;29070;48.102;-1.652;2022-08-19T13:07:11;101575.31;;;23.50;70.86
39949;BME280;29070;48.102;-1.652;2022-08-19T13:12:12;101577.63;;;23.36;70.33
39949;BME280;29070;48.102;-1.652;2022-08-19T13:17:13;101585.81;;;23.19;70.08
39949;BME280;29070;48.102;-1.652;2022-08-19T13:22:15;101585.78;;;23.09;70.35
39949;BME280;29070;48.102;-1.652;2022-08-19T13:27:16;101578.84;;;23.13;70.75
39949;BME280;29070;48.102;-1.652;2022-08-19T13:32:17;101586.41;;;23.27;70.68
39949;BME280;29070;48.102;-1.652;2022-08-19T13:37:35;101590.53;;;23.39;70.81
39949;BME280;29070;48.102;-1.652;2022-08-19T13:42:43;101584.44;;;23.54;70.32
39949;BME280;29070;48.102;-1.652;2022-08-19T13:47:51;101585.44;;;23.48;69.76
39949;BME280;29070;48.102;-1.652;2022-08-19T13:52:53;101583.50;;;23.33;70.04
39949;BME280;29070;48.102;-1.652;2022-08-19T13:57:57;101599.22;;;23.14;69.95
39949;BME280;29070;48.102;-1.652;2022-08-19T14:02:57;101602.16;;;22.85;69.98
39949;BME280;29070;48.102;-1.652;2022-08-19T14:07:58;101614.78;;;22.58;69.78
39949;BME280;29070;48.102;-1.652;2022-08-19T14:13:02;101595.56;;;22.34;70.53
39949;BME280;29070;48.102;-1.652;2022-08-19T14:18:03;101607.50;;;22.26;70.59
39949;BME280;29070;48.102;-1.652;2022-08-19T14:23:03;101595.06;;;22.15;71.12
39949;BME280;29070;48.102;-1.652;2022-08-19T14:28:05;101598.19;;;22.06;71.00
39949;BME280;29070;48.102;-1.652;2022-08-19T14:33:07;101591.47;;;22.04;71.48
39949;BME280;29070;48.102;-1.652;2022-08-19T14:38:15;101576.88;;;21.89;71.67
39949;BME280;29070;48.102;-1.652;2022-08-19T14:43:16;101598.75;;;21.86;71.90
39949;BME280;29070;48.102;-1.652;2022-08-19T14:48:17;101596.72;;;21.72;71.90
39949;BME280;29070;48.102;-1.652;2022-08-19T14:53:18;101596.16;;;21.69;71.99
39949;BME280;29070;48.102;-1.652;2022-08-19T14:58:18;101601.22;;;21.71;71.97
39949;BME280;29070;48.102;-1.652;2022-08-19T15:03:19;101607.34;;;21.66;72.18
39949;BME280;29070;48.102;-1.652;2022-08-19T15:08:19;101616.00;;;21.57;72.19
39949;BME280;29070;48.102;-1.652;2022-08-19T15:13:22;101610.19;;;21.60;72.15
39949;BME280;29070;48.102;-1.652;2022-08-19T15:18:24;101612.47;;;21.51;72.35
39949;BME280;29070;48.102;-1.652;2022-08-19T15:23:26;101608.41;;;21.31;72.30
39949;BME280;29070;48.102;-1.652;2022-08-19T15:28:26;101618.78;;;21.28;72.54
39949;BME280;29070;48.102;-1.652;2022-08-19T15:33:27;101624.94;;;21.28;72.99
39949;BME280;29070;48.102;-1.652;2022-08-19T15:38:27;101617.50;;;21.30;73.03
39949;BME280;29070;48.102;-1.652;2022-08-19T15:43:27;101627.22;;;21.03;72.88
39949;BME280;29070;48.102;-1.652;2022-08-19T15:48:28;101624.63;;;21.08;72.89
39949;BME280;29070;48.102;-1.652;2022-08-19T15:53:28;101633.72;;;21.07;72.94
39949;BME280;29070;48.102;-1.652;2022-08-19T15:58:29;101642.19;;;21.04;72.77
39949;BME280;29070;48.102;-1.652;2022-08-19T16:03:48;101649.03;;;21.00;72.76
39949;BME280;29070;48.102;-1.652;2022-08-19T16:09:07;101639.81;;;20.90;72.71
39949;BME280;29070;48.102;-1.652;2022-08-19T16:14:08;101641.75;;;20.78;72.95
39949;BME280;29070;48.102;-1.652;2022-08-19T16:19:09;101653.16;;;20.73;73.17
39949;BME280;29070;48.102;-1.652;2022-08-19T16:24:12;101649.19;;;20.76;73.39
39949;BME280;29070;48.102;-1.652;2022-08-19T16:29:14;101644.19;;;20.80;73.59
39949;BME280;29070;48.102;-1.652;2022-08-19T16:34:15;101647.75;;;20.85;73.63
39949;BME280;29070;48.102;-1.652;2022-08-19T16:39:16;101653.06;;;20.68;73.61
39949;BME280;29070;48.102;-1.652;2022-08-19T16:44:17;101656.44;;;20.64;73.72
39949;BME280;29070;48.102;-1.652;2022-08-19T16:49:20;101659.94;;;20.64;73.92
39949;BME280;29070;48.102;-1.652;2022-08-19T16:54:22;101670.53;;;20.76;74.08
39949;BME280;29070;48.102;-1.652;2022-08-19T16:59:22;101659.84;;;20.76;74.34
39949;BME280;29070;48.102;-1.652;2022-08-19T17:04:24;101653.41;;;20.89;74.43
39949;BME280;29070;48.102;-1.652;2022-08-19T17:09:24;101655.44;;;20.99;74.28
39949;BME280;29070;48.102;-1.652;2022-08-19T17:14:24;101658.59;;;20.95;74.18
39949;BME280;29070;48.102;-1.652;2022-08-19T17:19:25;101653.25;;;20.95;74.07
39949;BME280;29070;48.102;-1.652;2022-08-19T17:24:27;101653.34;;;21.01;74.29
39949;BME280;29070;48.102;-1.652;2022-08-19T17:29:27;101652.31;;;21.02;74.20
39949;BME280;29070;48.102;-1.652;2022-08-19T17:34:28;101649.63;;;21.02;73.60
39949;BME280;29070;48.102;-1.652;2022-08-19T17:39:28;101651.81;;;21.05;73.50
39949;BME280;29070;48.102;-1.652;2022-08-19T17:44:28;101649.72;;;21.07;74.09
39949;BME280;29070;48.102;-1.652;2022-08-19T17:49:29;101652.94;;;21.09;74.01
39949;BME280;29070;48.102;-1.652;2022-08-19T17:54:29;101651.09;;;21.09;73.58
39949;BME280;29070;48.102;-1.652;2022-08-19T17:59:30;101645.34;;;21.18;73.57
39949;BME280;29070;48.102;-1.652;2022-08-19T18:04:30;101651.06;;;21.26;73.17
39949;BME280;29070;48.102;-1.652;2022-08-19T18:09:33;101637.59;;;21.16;72.56
39949;BME280;29070;48.102;-1.652;2022-08-19T18:14:36;101645.28;;;21.12;72.90
39949;BME280;29070;48.102;-1.652;2022-08-19T18:19:40;101644.13;;;21.08;72.86
39949;BME280;29070;48.102;-1.652;2022-08-19T18:24:41;101648.56;;;21.03;73.04
39949;BME280;29070;48.102;-1.652;2022-08-19T18:29:41;101658.13;;;20.99;72.74
39949;BME280;29070;48.102;-1.652;2022-08-19T18:34:43;101649.53;;;20.97;72.77
39949;BME280;29070;48.102;-1.652;2022-08-19T18:39:44;101670.25;;;20.89;72.90
39949;BME280;29070;48.102;-1.652;2022-08-19T18:45:05;101670.53;;;20.76;72.66
39949;BME280;29070;48.102;-1.652;2022-08-19T18:50:24;101681.03;;;20.66;72.87
39949;BME280;29070;48.102;-1.652;2022-08-19T18:55:25;101689.03;;;20.54;72.78
39949;BME280;29070;48.102;-1.652;2022-08-19T19:00:28;101685.59;;;20.42;72.91
39949;BME280;29070;48.102;-1.652;2022-08-19T19:05:28;101695.84;;;20.33;73.19
39949;BME280;29070;48.102;-1.652;2022-08-19T19:10:29;101694.03;;;20.22;73.31
39949;BME280;29070;48.102;-1.652;2022-08-19T19:15:29;101695.31;;;20.07;73.30
39949;BME280;29070;48.102;-1.652;2022-08-19T19:20:29;101699.84;;;19.95;73.31
39949;BME280;29070;48.102;-1.652;2022-08-19T19:25:32;101703.22;;;19.78;73.18
39949;BME280;29070;48.102;-1.652;2022-08-19T19:30:33;101702.03;;;19.62;73.65
39949;BME280;29070;48.102;-1.652;2022-08-19T19:35:33;101713.16;;;19.48;73.55
39949;BME280;29070;48.102;-1.652;2022-08-19T19:40:34;101719.13;;;19.31;73.52
39949;BME280;29070;48.102;-1.652;2022-08-19T19:45:34;101716.31;;;19.14;73.41
39949;BME280;29070;48.102;-1.652;2022-08-19T19:50:36;101736.50;;;18.92;74.30
39949;BME280;29070;48.102;-1.652;2022-08-19T19:55:37;101731.25;;;18.85;74.04
39949;BME280;29070;48.102;-1.652;2022-08-19T20:00:40;101739.59;;;18.70;73.78
39949;BME280;29070;48.102;-1.652;2022-08-19T20:05:40;101745.91;;;18.57;73.97
39949;BME280;29070;48.102;-1.652;2022-08-19T20:10:42;101748.25;;;18.47;74.02
39949;BME280;29070;48.102;-1.652;2022-08-19T20:15:43;101755.81;;;18.32;73.87
39949;BME280;29070;48.102;-1.652;2022-08-19T20:20:43;101758.16;;;18.21;73.80
39949;BME280;29070;48.102;-1.652;2022-08-19T20:25:45;101759.34;;;18.07;73.92
39949;BME280;29070;48.102;-1.652;2022-08-19T20:30:45;101758.41;;;17.95;74.01
39949;BME280;29070;48.102;-1.652;2022-08-19T20:35:46;101753.81;;;17.83;74.02
39949;BME280;29070;48.102;-1.652;2022-08-19T20:40:46;101762.03;;;17.75;73.92
39949;BME280;29070;48.102;-1.652;2022-08-19T20:45:47;101760.91;;;17.64;74.09
39949;BME280;29070;48.102;-1.652;2022-08-19T20:50:47;101756.28;;;17.53;74.28
39949;BME280;29070;48.102;-1.652;2022-08-19T20:55:48;101759.06;;;17.33;74.85
39949;BME280;29070;48.102;-1.652;2022-08-19T21:00:51;101763.78;;;17.31;74.59
39949;BME280;29070;48.102;-1.652;2022-08-19T21:05:52;101763.00;;;17.24;74.74
39949;BME280;29070;48.102;-1.652;2022-08-19T21:10:54;101753.88;;;17.13;74.46
39949;BME280;29070;48.102;-1.652;2022-08-19T21:15:55;101763.94;;;17.04;74.71
39949;BME280;29070;48.102;-1.652;2022-08-19T21:20:55;101774.59;;;16.98;74.38
39949;BME280;29070;48.102;-1.652;2022-08-19T21:25:58;101769.72;;;16.88;74.85
39949;BME280;29070;48.102;-1.652;2022-08-19T21:30:59;101760.75;;;16.82;74.88
39949;BME280;29070;48.102;-1.652;2022-08-19T21:35:59;101759.97;;;16.75;74.98
39949;BME280;29070;48.102;-1.652;2022-08-19T21:41:01;101770.59;;;16.68;75.25
39949;BME280;29070;48.102;-1.652;2022-08-19T21:46:02;101758.97;;;16.63;75.42
39949;BME280;29070;48.102;-1.652;2022-08-19T21:51:02;101768.59;;;16.57;75.45
39949;BME280;29070;48.102;-1.652;2022-08-19T21:56:03;101775.53;;;16.51;75.50
39949;BME280;29070;48.102;-1.652;2022-08-19T22:01:05;101768.66;;;16.44;75.54
39949;BME280;29070;48.102;-1.652;2022-08-19T22:06:07;101784.75;;;16.35;75.58
39949;BME280;29070;48.102;-1.652;2022-08-19T22:11:08;101779.25;;;16.30;75.53
39949;BME280;29070;48.102;-1.652;2022-08-19T22:16:08;101782.13;;;16.22;75.81
39949;BME280;29070;48.102;-1.652;2022-08-19T22:21:09;101800.50;;;16.17;76.01
39949;BME280;29070;48.102;-1.652;2022-08-19T22:26:11;101785.41;;;16.11;75.98
39949;BME280;29070;48.102;-1.652;2022-08-19T22:31:11;101796.00;;;16.04;76.01
39949;BME280;29070;48.102;-1.652;2022-08-19T22:36:12;101799.28;;;15.99;76.18
39949;BME280;29070;48.102;-1.652;2022-08-19T22:41:13;101802.72;;;15.93;76.20
39949;BME280;29070;48.102;-1.652;2022-08-19T22:46:14;101806.78;;;15.89;76.35
39949;BME280;29070;48.102;-1.652;2022-08-19T22:51:15;101806.59;;;15.84;76.63
39949;BME280;29070;48.102;-1.652;2022-08-19T22:56:38;101804.13;;;15.82;76.75
39949;BME280;29070;48.102;-1.652;2022-08-19T23:01:38;101807.84;;;15.88;77.08
39949;BME280;29070;48.102;-1.652;2022-08-19T23:06:40;101806.00;;;15.95;77.56
39949;BME280;29070;48.102;-1.652;2022-08-19T23:11:41;101799.69;;;16.03;77.90
39949;BME280;29070;48.102;-1.652;2022-08-19T23:16:41;101795.78;;;16.12;77.97
39949;BME280;29070;48.102;-1.652;2022-08-19T23:21:41;101780.50;;;16.21;78.39
39949;BME280;29070;48.102;-1.652;2022-08-19T23:26:42;101783.34;;;16.26;78.37
39949;BME280;29070;48.102;-1.652;2022-08-19T23:32:02;101788.41;;;16.34;78.51
39949;BME280;29070;48.102;-1.652;2022-08-19T23:37:06;101781.50;;;16.40;78.62
39949;BME280;29070;48.102;-1.652;2022-08-19T23:42:10;101773.13;;;16.43;78.45
39949;BME280;29070;48.102;-1.652;2022-08-19T23:47:10;101795.09;;;16.50;78.78
39949;BME280;29070;48.102;-1.652;2022-08-19T23:52:11;101778.00;;;16.53;78.61
39949;BME280;29070;48.102;-1.652;2022-08-19T23:57:11;101773.50;;;16.53;78.75
